Time;durP1;ratioP1;P1;durP2;ratioP2;P2;SDS_P1;SDS_P2;PMS_P1;PMS_P2;Temp;Humidity;BMP_temperature;BMP_pressure;BME280_temperature;BME280_humidity;BME280_pressure;Samples;Min_cycle;Max_cycle;Signal;HPM_P1;HPM_P2
2022/08/23 00:00:23;;;;;;;6.97;2.00;;;;;;;;;;2055383;28;20035;-77
2022/08/23 00:01:45;;;;;;;6.10;1.77;;;;;;;;;;2064690;28;20105;-78
2022/08/23 00:03:04;;;;;;;6.38;2.00;;;;;;;;;;2064475;28;20407;-78
2022/08/23 00:04:25;;;;;;;8.05;2.80;;;;;;;;;;2058156;28;20039;-78
2022/08/23 00:05:44;;;;;;;6.63;2.25;;;;;;;;;;2056918;28;20579;-78
2022/08/23 00:07:04;;;;;;;3.53;2.15;;;;;;;;;;2056478;28;20116;-77
2022/08/23 00:08:23;;;;;;;5.13;2.55;;;;;;;;;;2062193;28;20453;-78
2022/08/23 00:09:42;;;;;;;6.38;1.88;;;;;;;;;;2066080;28;20026;-78
2022/08/23 00:11:01;;;;;;;8.60;2.50;;;;;;;;;;2060217;28;20046;-78
2022/08/23 00:12:20;;;;;;;7.53;2.67;;;;;;;;;;2064168;28;20042;-78
2022/08/23 00:13:39;;;;;;;7.85;2.20;;;;;;;;;;2064719;28;20026;-78
2022/08/23 00:14:58;;;;;;;4.20;2.30;;;;;;;;;;2064802;28;20548;-79
2022/08/23 00:16:17;;;;;;;9.60;2.58;;;;;;;;;;2066366;28;20029;-78
2022/08/23 00:17:37;;;;;;;7.43;2.40;;;;;;;;;;2069441;28;20057;-78
2022/08/23 00:18:55;;;;;;;9.60;1.95;;;;;;;;;;2067505;28;20034;-78
2022/08/23 00:20:16;;;;;;;5.70;2.50;;;;;;;;;;2067839;28;20113;-78
2022/08/23 00:21:36;;;;;;;4.75;2.55;;;;;;;;;;2068107;28;20767;-78
2022/08/23 00:22:56;;;;;;;3.83;2.88;;;;;;;;;;2056564;28;20027;-78
2022/08/23 00:24:15;;;;;;;7.85;3.13;;;;;;;;;;2049617;28;20031;-78
2022/08/23 00:25:34;;;;;;;8.02;3.88;;;;;;;;;;2058097;28;20034;-77
2022/08/23 00:27:03;;;;;;;10.95;2.95;;;;;;;;;;2059095;28;20105;-79
2022/08/23 00:28:22;;;;;;;4.00;2.33;;;;;;;;;;2066053;28;20046;-78
2022/08/23 00:29:52;;;;;;;3.00;1.88;;;;;;;;;;2064461;28;20034;-77
2022/08/23 00:31:11;;;;;;;4.03;2.15;;;;;;;;;;2066308;28;20628;-77
2022/08/23 00:32:32;;;;;;;4.63;2.20;;;;;;;;;;2070709;28;20029;-78
2022/08/23 00:33:50;;;;;;;6.10;2.53;;;;;;;;;;2068292;28;20034;-78
2022/08/23 00:35:11;;;;;;;4.22;1.83;;;;;;;;;;2058960;28;20031;-78
2022/08/23 00:36:30;;;;;;;6.60;3.33;;;;;;;;;;2062737;28;20046;-79
2022/08/23 00:37:49;;;;;;;9.02;2.70;;;;;;;;;;2063653;28;20034;-78
2022/08/23 00:39:07;;;;;;;3.40;2.42;;;;;;;;;;2058714;28;20166;-79
2022/08/23 00:40:26;;;;;;;6.07;2.00;;;;;;;;;;2057582;28;20447;-78
2022/08/23 00:41:46;;;;;;;8.82;2.70;;;;;;;;;;2064288;28;20117;-78
2022/08/23 00:48:16;;;;;;;5.85;2.35;;;;;;;;;;2066972;28;20386;-78
2022/08/23 00:49:37;;;;;;;5.55;1.85;;;;;;;;;;2066503;28;20022;-77
2022/08/23 00:51:00;;;;;;;7.60;2.30;;;;;;;;;;2068916;28;20408;-80
2022/08/23 00:52:23;;;;;;;3.58;2.17;;;;;;;;;;2059122;28;20035;-79
2022/08/23 00:53:45;;;;;;;3.38;2.03;;;;;;;;;;2067914;28;20026;-79
2022/08/23 00:55:04;;;;;;;5.20;1.90;;;;;;;;;;2068261;28;20034;-80
2022/08/23 00:56:25;;;;;;;8.10;2.20;;;;;;;;;;2069485;28;20039;-79
2022/08/23 00:57:44;;;;;;;6.50;2.47;;;;;;;;;;2066177;28;20488;-80
2022/08/23 00:59:03;;;;;;;4.82;2.13;;;;;;;;;;2067296;28;20026;-80
2022/08/23 01:00:22;;;;;;;5.50;2.10;;;;;;;;;;2065445;28;20034;-80
2022/08/23 01:01:42;;;;;;;7.18;2.33;;;;;;;;;;2059154;28;20030;-80
2022/08/23 01:03:03;;;;;;;6.05;2.83;;;;;;;;;;2058461;28;20074;-80
2022/08/23 01:04:23;;;;;;;7.35;2.05;;;;;;;;;;2067245;28;20033;-80
2022/08/23 01:05:45;;;;;;;4.03;2.00;;;;;;;;;;2061229;28;20034;-81
2022/08/23 01:07:11;;;;;;;5.93;1.52;;;;;;;;;;2063815;28;20033;-78
2022/08/23 01:08:31;;;;;;;7.18;1.90;;;;;;;;;;2066904;28;20026;-80
2022/08/23 01:09:52;;;;;;;3.65;1.60;;;;;;;;;;2065447;28;20034;-80
2022/08/23 01:11:14;;;;;;;5.65;1.70;;;;;;;;;;2060705;28;20054;-79
2022/08/23 01:12:35;;;;;;;6.63;1.98;;;;;;;;;;2069456;28;20128;-81
2022/08/23 01:13:57;;;;;;;4.50;1.88;;;;;;;;;;2069719;28;21011;-79
2022/08/23 01:15:42;;;;;;;3.22;1.67;;;;;;;;;;2065904;28;20496;-81
2022/08/23 01:17:07;;;;;;;3.33;1.88;;;;;;;;;;2059596;28;20109;-81
2022/08/23 01:18:27;;;;;;;5.88;1.50;;;;;;;;;;2059344;28;20388;-81
2022/08/23 01:19:48;;;;;;;4.22;1.58;;;;;;;;;;2064735;28;20723;-79
2022/08/23 01:21:07;;;;;;;5.15;1.38;;;;;;;;;;2067171;28;20026;-82
2022/08/23 01:22:33;;;;;;;6.50;1.38;;;;;;;;;;2058943;28;20551;-81
2022/08/23 01:23:56;;;;;;;4.43;1.65;;;;;;;;;;2066328;28;20038;-81
2022/08/23 01:25:17;;;;;;;4.50;1.40;;;;;;;;;;2066227;28;20054;-81
2022/08/23 01:26:36;;;;;;;9.02;1.70;;;;;;;;;;2066524;28;20029;-80
2022/08/23 01:27:56;;;;;;;3.38;1.60;;;;;;;;;;2064860;28;20438;-81
2022/08/23 01:29:16;;;;;;;3.88;1.50;;;;;;;;;;2059644;28;20446;-79
2022/08/23 01:30:35;;;;;;;5.43;1.70;;;;;;;;;;2059882;28;20046;-81
2022/08/23 01:31:55;;;;;;;6.05;1.70;;;;;;;;;;2063164;28;20452;-81
2022/08/23 01:33:15;;;;;;;4.47;1.70;;;;;;;;;;2059631;28;20046;-80
2022/08/23 01:34:35;;;;;;;4.63;1.55;;;;;;;;;;2063783;28;20129;-81
2022/08/23 01:35:55;;;;;;;4.65;1.88;;;;;;;;;;2061705;28;20066;-81
2022/08/23 01:37:14;;;;;;;4.45;2.10;;;;;;;;;;2060192;28;20042;-80
2022/08/23 01:38:33;;;;;;;3.83;2.30;;;;;;;;;;2056211;28;20488;-81
2022/08/23 01:39:54;;;;;;;5.10;1.80;;;;;;;;;;2064039;28;20034;-81
2022/08/23 01:41:13;;;;;;;3.63;1.95;;;;;;;;;;2060812;28;20057;-81
2022/08/23 01:42:31;;;;;;;6.13;2.17;;;;;;;;;;2065573;28;20636;-80
2022/08/23 01:43:51;;;;;;;5.47;2.05;;;;;;;;;;2063272;28;20026;-80
2022/08/23 01:45:11;;;;;;;6.18;2.05;;;;;;;;;;2062383;28;20491;-80
2022/08/23 01:46:31;;;;;;;4.20;1.67;;;;;;;;;;2061764;28;20027;-80
2022/08/23 01:47:49;;;;;;;2.63;1.45;;;;;;;;;;2065281;28;20054;-80
2022/08/23 01:49:08;;;;;;;4.13;1.67;;;;;;;;;;2057838;28;20027;-81
2022/08/23 01:50:28;;;;;;;7.15;1.80;;;;;;;;;;2063944;28;20034;-80
2022/08/23 01:51:46;;;;;;;4.28;2.13;;;;;;;;;;2067377;28;20042;-80
2022/08/23 01:53:06;;;;;;;5.22;1.63;;;;;;;;;;2060425;28;20031;-81
2022/08/23 01:54:24;;;;;;;6.72;1.73;;;;;;;;;;2058442;28;20030;-81
2022/08/23 01:55:44;;;;;;;5.65;2.00;;;;;;;;;;2065440;28;20030;-81
2022/08/23 01:57:04;;;;;;;5.13;1.63;;;;;;;;;;2062239;28;20027;-79
2022/08/23 01:58:23;;;;;;;6.53;1.70;;;;;;;;;;2065561;28;20042;-81
2022/08/23 01:59:42;;;;;;;4.80;1.88;;;;;;;;;;2067660;28;20349;-81
2022/08/23 02:01:03;;;;;;;3.22;1.77;;;;;;;;;;2067521;28;20026;-80
2022/08/23 02:02:22;;;;;;;5.63;2.00;;;;;;;;;;2060335;28;20415;-80
2022/08/23 02:03:41;;;;;;;3.05;1.65;;;;;;;;;;2064835;28;20480;-81
2022/08/23 02:05:00;;;;;;;4.57;1.55;;;;;;;;;;2067979;28;20038;-81
2022/08/23 02:06:20;;;;;;;6.05;1.50;;;;;;;;;;2068553;28;20054;-79
2022/08/23 02:07:39;;;;;;;4.78;1.77;;;;;;;;;;2068162;28;20035;-81
2022/08/23 02:09:00;;;;;;;3.60;1.92;;;;;;;;;;2064315;28;20038;-82
2022/08/23 02:10:20;;;;;;;3.30;1.45;;;;;;;;;;2066341;28;20121;-80
2022/08/23 02:11:40;;;;;;;5.35;1.60;;;;;;;;;;2063521;28;20026;-81
2022/08/23 02:12:59;;;;;;;4.45;1.80;;;;;;;;;;2066163;28;20030;-81
2022/08/23 02:14:19;;;;;;;5.82;2.22;;;;;;;;;;2065948;28;20030;-82
2022/08/23 02:15:41;;;;;;;4.28;1.70;;;;;;;;;;2067152;28;20022;-80
2022/08/23 02:17:00;;;;;;;6.28;1.77;;;;;;;;;;2067992;28;20034;-80
2022/08/23 02:18:19;;;;;;;6.88;1.83;;;;;;;;;;2067452;28;20488;-80
2022/08/23 02:19:39;;;;;;;8.55;1.88;;;;;;;;;;2068271;28;20047;-80
2022/08/23 02:20:58;;;;;;;5.95;2.15;;;;;;;;;;2061438;28;20569;-81
2022/08/23 02:22:17;;;;;;;4.95;1.77;;;;;;;;;;2066528;28;20042;-81
2022/08/23 02:23:36;;;;;;;5.00;1.50;;;;;;;;;;2060558;28;20034;-81
2022/08/23 02:24:56;;;;;;;5.07;1.50;;;;;;;;;;2058140;28;20022;-80
2022/08/23 02:26:15;;;;;;;8.60;1.90;;;;;;;;;;2058044;28;20101;-80
2022/08/23 02:27:34;;;;;;;3.35;1.80;;;;;;;;;;2058229;28;20031;-79
2022/08/23 02:28:53;;;;;;;6.35;1.80;;;;;;;;;;2057131;28;20035;-80
2022/08/23 02:30:12;;;;;;;3.70;1.52;;;;;;;;;;2064304;28;20112;-80
2022/08/23 02:31:32;;;;;;;5.75;2.40;;;;;;;;;;2059676;28;20172;-79
2022/08/23 02:32:51;;;;;;;3.55;1.70;;;;;;;;;;2056880;28;20027;-80
2022/08/23 02:34:10;;;;;;;2.42;1.70;;;;;;;;;;2059862;28;20026;-80
2022/08/23 02:35:29;;;;;;;5.55;1.70;;;;;;;;;;2064585;28;20026;-80
2022/08/23 02:36:48;;;;;;;3.60;1.75;;;;;;;;;;2068162;28;20097;-80
2022/08/23 02:38:08;;;;;;;6.93;1.85;;;;;;;;;;2061836;28;20460;-80
2022/08/23 02:39:27;;;;;;;4.78;1.83;;;;;;;;;;2065446;28;20030;-80
2022/08/23 02:40:47;;;;;;;4.13;2.17;;;;;;;;;;2056861;28;20026;-80
2022/08/23 02:42:06;;;;;;;6.28;2.03;;;;;;;;;;2065075;28;20062;-79
2022/08/23 02:43:26;;;;;;;4.28;2.72;;;;;;;;;;2059628;28;20057;-79
2022/08/23 02:44:45;;;;;;;8.45;3.80;;;;;;;;;;2058211;28;20101;-79
2022/08/23 02:46:05;;;;;;;8.15;3.45;;;;;;;;;;2062389;28;20034;-79
2022/08/23 02:47:24;;;;;;;7.03;4.53;;;;;;;;;;2062094;28;20030;-80
2022/08/23 02:48:42;;;;;;;7.82;4.60;;;;;;;;;;2064345;28;20022;-80
2022/08/23 02:50:06;;;;;;;9.27;4.78;;;;;;;;;;2058075;28;20058;-80
2022/08/23 02:51:25;;;;;;;9.02;4.75;;;;;;;;;;2067160;28;20029;-81
2022/08/23 02:52:44;;;;;;;10.05;4.97;;;;;;;;;;2063453;28;20034;-81
2022/08/23 02:54:04;;;;;;;8.60;4.72;;;;;;;;;;2059054;28;20038;-82
2022/08/23 02:55:23;;;;;;;8.10;4.93;;;;;;;;;;2067142;28;20038;-82
2022/08/23 02:56:42;;;;;;;9.93;5.03;;;;;;;;;;2056574;28;20027;-81
2022/08/23 02:58:01;;;;;;;9.52;5.28;;;;;;;;;;2057232;28;20062;-82
2022/08/23 02:59:20;;;;;;;7.15;4.90;;;;;;;;;;2060279;28;20035;-83
2022/08/23 03:00:39;;;;;;;5.35;3.85;;;;;;;;;;2063253;28;20038;-81
2022/08/23 03:01:58;;;;;;;5.18;3.92;;;;;;;;;;2069761;28;20070;-80
2022/08/23 03:03:17;;;;;;;7.57;3.58;;;;;;;;;;2067435;28;20034;-81
2022/08/23 03:04:36;;;;;;;7.07;2.90;;;;;;;;;;2062526;28;20026;-81
2022/08/23 03:05:55;;;;;;;8.88;3.95;;;;;;;;;;2059387;28;20042;-81
2022/08/23 03:07:14;;;;;;;6.00;3.50;;;;;;;;;;2059751;28;20425;-80
2022/08/23 03:08:33;;;;;;;7.80;3.10;;;;;;;;;;2060578;28;20039;-82
2022/08/23 03:09:52;;;;;;;9.30;2.83;;;;;;;;;;2054520;28;20026;-81
2022/08/23 03:11:12;;;;;;;9.55;3.10;;;;;;;;;;2057014;28;20030;-81
2022/08/23 03:12:31;;;;;;;6.00;2.75;;;;;;;;;;2065528;28;20030;-81
2022/08/23 03:13:51;;;;;;;7.70;3.40;;;;;;;;;;2064209;28;20046;-81
2022/08/23 03:15:10;;;;;;;5.20;2.95;;;;;;;;;;2061032;28;20035;-81
2022/08/23 03:16:29;;;;;;;9.02;3.17;;;;;;;;;;2060592;28;20038;-81
2022/08/23 03:17:48;;;;;;;6.07;2.85;;;;;;;;;;2065391;28;20038;-81
2022/08/23 03:19:08;;;;;;;5.43;2.88;;;;;;;;;;2065985;28;20050;-80
2022/08/23 03:20:27;;;;;;;8.05;3.25;;;;;;;;;;2068401;28;20026;-81
2022/08/23 03:21:46;;;;;;;6.35;2.97;;;;;;;;;;2067382;28;20026;-80
2022/08/23 03:23:06;;;;;;;8.68;3.20;;;;;;;;;;2069104;28;20434;-81
2022/08/23 03:24:25;;;;;;;9.05;2.75;;;;;;;;;;2058279;28;20507;-81
2022/08/23 03:25:44;;;;;;;9.27;3.40;;;;;;;;;;2065206;28;20026;-81
2022/08/23 03:27:03;;;;;;;5.63;2.40;;;;;;;;;;2062279;28;20035;-81
2022/08/23 03:28:22;;;;;;;4.00;2.47;;;;;;;;;;2057109;28;20031;-80
2022/08/23 03:29:42;;;;;;;8.43;2.80;;;;;;;;;;2064034;28;20034;-81
2022/08/23 03:31:01;;;;;;;11.65;2.88;;;;;;;;;;2068023;28;20033;-81
2022/08/23 03:32:20;;;;;;;6.72;2.92;;;;;;;;;;2062042;28;20042;-81
2022/08/23 03:33:39;;;;;;;9.95;2.80;;;;;;;;;;2066195;28;20067;-81
2022/08/23 03:34:58;;;;;;;7.35;2.28;;;;;;;;;;2063541;28;20070;-81
2022/08/23 03:36:18;;;;;;;7.80;2.25;;;;;;;;;;2066701;28;20022;-81
2022/08/23 03:37:38;;;;;;;6.60;3.00;;;;;;;;;;2061917;28;20026;-81
2022/08/23 03:38:58;;;;;;;8.52;2.65;;;;;;;;;;2057220;28;20027;-81
2022/08/23 03:40:17;;;;;;;7.05;2.50;;;;;;;;;;2056285;28;20022;-81
2022/08/23 03:41:36;;;;;;;6.80;2.50;;;;;;;;;;2065366;28;20105;-81
2022/08/23 03:42:55;;;;;;;8.15;2.85;;;;;;;;;;2067609;28;20129;-81
2022/08/23 03:44:14;;;;;;;10.65;2.60;;;;;;;;;;2056704;28;20046;-81
2022/08/23 03:45:33;;;;;;;5.00;2.50;;;;;;;;;;2064789;28;20030;-81
2022/08/23 03:46:52;;;;;;;4.53;2.28;;;;;;;;;;2059837;28;20035;-81
2022/08/23 03:48:11;;;;;;;4.00;1.75;;;;;;;;;;2064685;28;20026;-82
2022/08/23 03:49:30;;;;;;;4.30;2.08;;;;;;;;;;2057224;28;20035;-81
2022/08/23 03:50:49;;;;;;;8.82;2.40;;;;;;;;;;2056167;28;21003;-82
2022/08/23 03:52:08;;;;;;;6.07;2.17;;;;;;;;;;2065392;28;20062;-81
2022/08/23 03:53:27;;;;;;;3.15;1.90;;;;;;;;;;2067066;28;20026;-81
2022/08/23 03:54:46;;;;;;;6.50;2.38;;;;;;;;;;2066802;28;20109;-81
2022/08/23 03:56:05;;;;;;;6.07;2.53;;;;;;;;;;2068548;28;20038;-82
2022/08/23 03:57:24;;;;;;;9.77;2.67;;;;;;;;;;2066918;28;20039;-81
2022/08/23 03:58:43;;;;;;;4.70;3.08;;;;;;;;;;2063064;28;20027;-81
2022/08/23 04:00:03;;;;;;;6.25;2.33;;;;;;;;;;2055780;28;20030;-81
2022/08/23 04:01:22;;;;;;;8.85;2.40;;;;;;;;;;2065675;28;20026;-81
2022/08/23 04:02:41;;;;;;;5.22;2.20;;;;;;;;;;2061523;28;20435;-82
2022/08/23 04:04:00;;;;;;;5.40;2.47;;;;;;;;;;2059932;28;20499;-81
2022/08/23 04:05:19;;;;;;;9.82;2.10;;;;;;;;;;2058554;28;20504;-82
2022/08/23 04:06:38;;;;;;;2.53;2.20;;;;;;;;;;2059088;28;20030;-82
2022/08/23 04:07:57;;;;;;;6.72;2.22;;;;;;;;;;2065284;28;20058;-80
2022/08/23 04:09:16;;;;;;;7.07;2.22;;;;;;;;;;2061390;28;20035;-81
2022/08/23 04:10:37;;;;;;;4.80;2.22;;;;;;;;;;2064323;28;20034;-81
2022/08/23 04:11:57;;;;;;;4.55;2.53;;;;;;;;;;2059647;28;20026;-82
2022/08/23 04:13:15;;;;;;;8.25;2.67;;;;;;;;;;2061039;28;20018;-82
2022/08/23 04:14:34;;;;;;;5.80;2.10;;;;;;;;;;2062469;28;20038;-81
2022/08/23 04:15:54;;;;;;;5.55;2.13;;;;;;;;;;2059400;28;20034;-80
2022/08/23 04:17:13;;;;;;;5.95;2.25;;;;;;;;;;2063036;28;20069;-81
2022/08/23 04:18:32;;;;;;;3.63;1.92;;;;;;;;;;2059352;28;20034;-80
2022/08/23 04:19:51;;;;;;;6.30;2.72;;;;;;;;;;2062871;28;20459;-78
2022/08/23 04:21:14;;;;;;;6.80;2.42;;;;;;;;;;2066274;28;20034;-82
2022/08/23 04:22:33;;;;;;;5.10;1.98;;;;;;;;;;2058782;28;20086;-77
2022/08/23 04:23:52;;;;;;;4.93;2.40;;;;;;;;;;2063688;28;20511;-81
2022/08/23 04:25:11;;;;;;;5.50;1.92;;;;;;;;;;2062565;28;20034;-81
2022/08/23 04:26:31;;;;;;;5.72;2.03;;;;;;;;;;2066473;28;20410;-81
2022/08/23 04:27:50;;;;;;;7.63;2.42;;;;;;;;;;2054390;28;20046;-79
2022/08/23 04:29:10;;;;;;;5.30;2.10;;;;;;;;;;2057351;28;20038;-84
2022/08/23 04:30:30;;;;;;;8.25;2.47;;;;;;;;;;2057720;28;20038;-84
2022/08/23 04:31:49;;;;;;;4.40;2.10;;;;;;;;;;2059556;28;20540;-84
2022/08/23 04:33:08;;;;;;;9.18;2.80;;;;;;;;;;2067913;28;20042;-82
2022/08/23 04:34:27;;;;;;;4.57;2.50;;;;;;;;;;2065645;28;20077;-85
2022/08/23 04:35:46;;;;;;;4.05;2.00;;;;;;;;;;2066550;28;20039;-81
2022/08/23 04:37:05;;;;;;;8.23;2.67;;;;;;;;;;2066272;28;20026;-82
2022/08/23 04:38:24;;;;;;;7.82;2.60;;;;;;;;;;2058518;28;20031;-84
2022/08/23 04:42:59;;;;;;;10.30;2.70;;;;;;;;;;2068191;28;20510;-79
2022/08/23 04:44:19;;;;;;;10.20;3.63;;;;;;;;;;2065608;28;20038;-80
2022/08/23 04:45:39;;;;;;;4.93;2.50;;;;;;;;;;2064906;28;20026;-81
2022/08/23 04:46:57;;;;;;;4.40;2.25;;;;;;;;;;2065683;28;20394;-78
2022/08/23 04:48:16;;;;;;;7.82;2.63;;;;;;;;;;2065981;28;20046;-79
2022/08/23 04:49:35;;;;;;;7.05;2.38;;;;;;;;;;2061353;28;20034;-77
2022/08/23 04:50:54;;;;;;;7.43;2.80;;;;;;;;;;2054246;28;20030;-82
2022/08/23 04:52:13;;;;;;;4.30;2.33;;;;;;;;;;2062418;28;20104;-80
2022/08/23 04:53:34;;;;;;;6.80;2.70;;;;;;;;;;2063393;28;20765;-81
2022/08/23 04:54:53;;;;;;;5.93;2.22;;;;;;;;;;2066177;28;20034;-78
2022/08/23 04:56:12;;;;;;;7.88;2.55;;;;;;;;;;2056447;28;20035;-80
2022/08/23 04:57:31;;;;;;;6.97;2.38;;;;;;;;;;2062512;28;20031;-80
2022/08/23 04:58:50;;;;;;;5.40;2.13;;;;;;;;;;2059534;28;20098;-81
2022/08/23 05:00:11;;;;;;;8.85;3.03;;;;;;;;;;2063833;28;20030;-81
2022/08/23 05:01:30;;;;;;;3.58;2.13;;;;;;;;;;2067286;28;20027;-80
2022/08/23 05:02:49;;;;;;;4.18;2.20;;;;;;;;;;2064842;28;20022;-84
2022/08/23 05:04:08;;;;;;;6.47;2.47;;;;;;;;;;2064867;28;20106;-79
2022/08/23 05:05:27;;;;;;;6.18;2.45;;;;;;;;;;2056767;28;20031;-83
2022/08/23 05:06:46;;;;;;;6.13;2.50;;;;;;;;;;2063780;28;20034;-78
2022/08/23 05:08:05;;;;;;;5.82;1.98;;;;;;;;;;2067331;28;20495;-83
2022/08/23 05:09:24;;;;;;;6.65;2.55;;;;;;;;;;2060145;28;20034;-83
2022/08/23 05:10:43;;;;;;;6.07;1.98;;;;;;;;;;2056062;28;20026;-85
2022/08/23 05:12:02;;;;;;;3.50;1.95;;;;;;;;;;2057547;28;20038;-80
2022/08/23 05:13:21;;;;;;;5.22;2.28;;;;;;;;;;2062557;28;20038;-83
2022/08/23 05:14:40;;;;;;;3.65;1.92;;;;;;;;;;2066376;28;20472;-84
2022/08/23 05:15:59;;;;;;;8.23;2.63;;;;;;;;;;2061310;28;20026;-83
2022/08/23 05:17:18;;;;;;;5.53;2.63;;;;;;;;;;2063652;28;20034;-82
2022/08/23 05:18:37;;;;;;;5.22;2.10;;;;;;;;;;2068124;28;20045;-86
2022/08/23 05:19:56;;;;;;;7.65;2.30;;;;;;;;;;2067894;28;20046;-81
2022/08/23 05:21:16;;;;;;;4.97;2.42;;;;;;;;;;2060708;28;20051;-82
2022/08/23 05:22:37;;;;;;;7.05;2.15;;;;;;;;;;2063139;28;20379;-82
2022/08/23 05:23:55;;;;;;;3.20;2.00;;;;;;;;;;2069808;28;20034;-82
2022/08/23 05:25:14;;;;;;;6.30;2.20;;;;;;;;;;2068910;28;20483;-81
2022/08/23 05:26:33;;;;;;;5.95;2.40;;;;;;;;;;2070511;28;20042;-82
2022/08/23 05:27:55;;;;;;;3.83;2.05;;;;;;;;;;2062176;28;20038;-82
2022/08/23 05:29:15;;;;;;;5.40;2.35;;;;;;;;;;2068163;28;20408;-82
2022/08/23 05:30:34;;;;;;;6.38;2.13;;;;;;;;;;2063641;28;20137;-79
2022/08/23 05:31:53;;;;;;;6.53;1.98;;;;;;;;;;2065801;28;20029;-81
2022/08/23 05:33:13;;;;;;;7.43;1.90;;;;;;;;;;2068717;28;20062;-81
2022/08/23 05:34:32;;;;;;;6.97;2.53;;;;;;;;;;2061405;28;20458;-79
2022/08/23 05:35:51;;;;;;;5.30;2.10;;;;;;;;;;2064012;28;20452;-80
2022/08/23 05:37:10;;;;;;;3.78;1.90;;;;;;;;;;2071784;28;20101;-79
2022/08/23 05:38:29;;;;;;;4.00;2.13;;;;;;;;;;2062960;28;20023;-80
2022/08/23 05:39:48;;;;;;;5.88;2.40;;;;;;;;;;2065223;28;20030;-80
2022/08/23 05:41:07;;;;;;;16.48;2.85;;;;;;;;;;2066526;28;20046;-79
2022/08/23 05:42:26;;;;;;;3.25;2.08;;;;;;;;;;2068039;28;20034;-80
2022/08/23 05:43:45;;;;;;;5.28;2.20;;;;;;;;;;2060279;28;20456;-80
2022/08/23 05:45:05;;;;;;;8.02;2.00;;;;;;;;;;2057714;28;20026;-79
2022/08/23 05:46:23;;;;;;;6.85;2.05;;;;;;;;;;2057463;28;20027;-78
2022/08/23 05:47:42;;;;;;;8.35;3.63;;;;;;;;;;2067071;28;20030;-80
2022/08/23 05:49:01;;;;;;;6.13;2.38;;;;;;;;;;2068242;28;20026;-80
2022/08/23 05:50:21;;;;;;;4.38;2.33;;;;;;;;;;2068155;28;21226;-81
2022/08/23 05:51:41;;;;;;;7.20;2.25;;;;;;;;;;2066206;28;20546;-80
2022/08/23 05:53:00;;;;;;;6.07;2.03;;;;;;;;;;2061468;28;20038;-81
2022/08/23 05:54:19;;;;;;;6.05;2.47;;;;;;;;;;2064409;28;20023;-83
2022/08/23 05:55:38;;;;;;;7.07;2.47;;;;;;;;;;2065713;28;20035;-84
2022/08/23 05:56:57;;;;;;;5.90;2.00;;;;;;;;;;2061538;28;20034;-82
2022/08/23 05:58:17;;;;;;;4.13;1.70;;;;;;;;;;2065378;28;20117;-82
2022/08/23 05:59:36;;;;;;;6.82;2.85;;;;;;;;;;2068240;28;20026;-84
2022/08/23 06:00:55;;;;;;;4.53;2.03;;;;;;;;;;2060472;28;20030;-84
2022/08/23 06:02:14;;;;;;;5.85;3.47;;;;;;;;;;2060640;28;20066;-85
2022/08/23 06:03:32;;;;;;;6.00;2.28;;;;;;;;;;2058862;28;20023;-85
2022/08/23 06:04:51;;;;;;;6.78;2.45;;;;;;;;;;2059140;28;20455;-85
2022/08/23 06:06:11;;;;;;;5.05;2.30;;;;;;;;;;2066686;28;20074;-79
2022/08/23 06:07:32;;;;;;;6.78;2.10;;;;;;;;;;2072069;28;20030;-84
2022/08/23 06:08:52;;;;;;;4.90;2.10;;;;;;;;;;2070566;28;20066;-86
2022/08/23 06:10:11;;;;;;;4.82;1.88;;;;;;;;;;2068661;28;20029;-85
2022/08/23 06:11:30;;;;;;;4.93;2.20;;;;;;;;;;2068033;28;20026;-85
2022/08/23 06:12:49;;;;;;;5.68;1.90;;;;;;;;;;2062473;28;20404;-81
2022/08/23 06:14:11;;;;;;;5.28;2.38;;;;;;;;;;2066013;28;20398;-85
2022/08/23 06:15:31;;;;;;;3.65;2.00;;;;;;;;;;2072609;28;20066;-85
2022/08/23 06:16:50;;;;;;;3.15;1.90;;;;;;;;;;2066569;28;20022;-84
2022/08/23 06:18:08;;;;;;;4.43;2.05;;;;;;;;;;2069773;28;20030;-86
2022/08/23 06:19:27;;;;;;;4.32;1.90;;;;;;;;;;2063176;28;20521;-85
2022/08/23 06:20:46;;;;;;;4.20;2.35;;;;;;;;;;2068663;28;20023;-85
2022/08/23 06:22:05;;;;;;;3.95;1.40;;;;;;;;;;2068769;28;20030;-84
2022/08/23 06:23:24;;;;;;;3.67;2.10;;;;;;;;;;2062841;28;20038;-84
2022/08/23 06:24:43;;;;;;;4.80;1.95;;;;;;;;;;2064852;28;20025;-79
2022/08/23 06:26:13;;;;;;;6.47;1.70;;;;;;;;;;2069409;28;20030;-84
2022/08/23 06:27:32;;;;;;;5.93;2.15;;;;;;;;;;2061977;28;20109;-85
2022/08/23 06:28:53;;;;;;;3.75;2.10;;;;;;;;;;2062318;28;20034;-80
2022/08/23 06:30:12;;;;;;;6.22;1.92;;;;;;;;;;2060251;28;20035;-85
2022/08/23 06:31:47;;;;;;;5.90;2.10;;;;;;;;;;2060122;28;20027;-85
2022/08/23 06:33:07;;;;;;;4.35;1.50;;;;;;;;;;2067444;28;20038;-85
2022/08/23 06:34:32;;;;;;;6.45;2.60;;;;;;;;;;2067000;28;20026;-84
2022/08/23 06:35:59;;;;;;;4.68;1.90;;;;;;;;;;2062296;28;20041;-85
2022/08/23 06:37:18;;;;;;;5.97;1.77;;;;;;;;;;2066489;28;20406;-85
2022/08/23 06:38:38;;;;;;;5.50;2.10;;;;;;;;;;2064444;28;20118;-85
2022/08/23 06:39:57;;;;;;;7.07;2.05;;;;;;;;;;2065176;28;20018;-85
2022/08/23 06:41:16;;;;;;;5.32;2.08;;;;;;;;;;2066295;28;20946;-85
2022/08/23 06:42:35;;;;;;;3.30;1.70;;;;;;;;;;2058217;28;20023;-85
2022/08/23 06:43:54;;;;;;;6.28;1.92;;;;;;;;;;2068316;28;20519;-84
2022/08/23 06:45:13;;;;;;;4.10;1.52;;;;;;;;;;2070770;28;20042;-85
2022/08/23 06:46:32;;;;;;;6.13;1.45;;;;;;;;;;2065015;28;20412;-85
2022/08/23 06:47:51;;;;;;;6.60;1.70;;;;;;;;;;2058439;28;20026;-85
2022/08/23 06:49:10;;;;;;;5.63;1.48;;;;;;;;;;2060342;28;20026;-79
2022/08/23 06:50:29;;;;;;;4.22;1.38;;;;;;;;;;2058350;28;20105;-86
2022/08/23 06:51:50;;;;;;;3.60;1.20;;;;;;;;;;2068218;28;20038;-84
2022/08/23 06:53:11;;;;;;;5.97;1.58;;;;;;;;;;2069986;28;20038;-84
2022/08/23 06:54:31;;;;;;;4.97;1.50;;;;;;;;;;2061366;28;20022;-82
2022/08/23 06:55:50;;;;;;;3.83;1.70;;;;;;;;;;2066871;28;20514;-83
2022/08/23 06:57:09;;;;;;;9.07;1.65;;;;;;;;;;2063406;28;20030;-83
2022/08/23 06:58:28;;;;;;;8.23;1.58;;;;;;;;;;2067400;28;20026;-89
2022/08/23 06:59:47;;;;;;;4.88;1.40;;;;;;;;;;2070403;28;20037;-86
2022/08/23 07:01:17;;;;;;;6.28;1.58;;;;;;;;;;2059819;28;20026;-79
2022/08/23 07:02:36;;;;;;;4.90;1.90;;;;;;;;;;2067664;28;20034;-79
2022/08/23 07:03:56;;;;;;;4.70;1.45;;;;;;;;;;2062658;28;20026;-80
2022/08/23 07:05:15;;;;;;;7.53;2.33;;;;;;;;;;2064311;28;20030;-77
2022/08/23 07:06:33;;;;;;;8.10;1.50;;;;;;;;;;2057553;28;20030;-85
2022/08/23 07:07:53;;;;;;;6.32;2.00;;;;;;;;;;2065778;28;20410;-86
2022/08/23 07:09:12;;;;;;;5.35;1.50;;;;;;;;;;2061952;28;20030;-87
2022/08/23 07:10:31;;;;;;;4.57;1.55;;;;;;;;;;2059484;28;20054;-86
2022/08/23 07:11:50;;;;;;;4.35;1.60;;;;;;;;;;2065057;28;20030;-87
2022/08/23 07:13:09;;;;;;;3.33;1.40;;;;;;;;;;2066131;28;20023;-88
2022/08/23 07:14:28;;;;;;;5.25;1.58;;;;;;;;;;2060602;28;20507;-86
2022/08/23 07:15:47;;;;;;;7.10;1.67;;;;;;;;;;2067072;28;20030;-86
2022/08/23 07:17:06;;;;;;;3.38;1.58;;;;;;;;;;2069237;28;20026;-86
2022/08/23 07:18:25;;;;;;;3.22;1.65;;;;;;;;;;2068343;28;20034;-85
2022/08/23 07:19:44;;;;;;;3.85;1.20;;;;;;;;;;2061562;28;20058;-82
2022/08/23 07:21:04;;;;;;;3.42;1.42;;;;;;;;;;2066489;28;20495;-86
2022/08/23 07:22:23;;;;;;;5.00;1.38;;;;;;;;;;2067494;28;20022;-88
2022/08/23 07:23:44;;;;;;;3.90;1.58;;;;;;;;;;2068153;28;20034;-88
2022/08/23 07:25:03;;;;;;;7.15;1.60;;;;;;;;;;2063071;28;20054;-87
2022/08/23 07:26:23;;;;;;;4.57;0.98;;;;;;;;;;2057415;28;20030;-86
2022/08/23 07:27:42;;;;;;;3.08;1.30;;;;;;;;;;2065864;28;20713;-85
2022/08/23 07:29:08;;;;;;;6.70;1.60;;;;;;;;;;2062237;28;20046;-86
2022/08/23 07:30:30;;;;;;;4.43;1.38;;;;;;;;;;2067008;28;20060;-82
2022/08/23 07:31:54;;;;;;;3.42;1.55;;;;;;;;;;2058476;28;20030;-84
2022/08/23 07:33:13;;;;;;;3.63;1.40;;;;;;;;;;2058470;28;20054;-79
2022/08/23 07:34:33;;;;;;;3.80;1.55;;;;;;;;;;2064105;28;20030;-78
2022/08/23 07:35:52;;;;;;;4.10;1.30;;;;;;;;;;2066472;28;20026;-77
2022/08/23 07:37:12;;;;;;;4.90;1.48;;;;;;;;;;2068028;28;20025;-76
2022/08/23 07:38:32;;;;;;;3.55;1.10;;;;;;;;;;2060361;28;20030;-77
2022/08/23 07:39:51;;;;;;;4.32;1.23;;;;;;;;;;2057799;28;20042;-77
2022/08/23 07:41:10;;;;;;;4.68;1.40;;;;;;;;;;2064205;28;20467;-78
2022/08/23 07:42:29;;;;;;;5.32;1.20;;;;;;;;;;2060935;28;20476;-77
2022/08/23 07:43:48;;;;;;;8.30;1.55;;;;;;;;;;2064506;28;20039;-80
2022/08/23 07:45:08;;;;;;;5.93;1.60;;;;;;;;;;2065722;28;20039;-80
2022/08/23 07:46:27;;;;;;;3.42;1.20;;;;;;;;;;2061170;28;20046;-80
2022/08/23 07:47:47;;;;;;;3.00;1.40;;;;;;;;;;2058438;28;20105;-80
2022/08/23 07:49:07;;;;;;;3.17;1.33;;;;;;;;;;2061932;28;20142;-81
2022/08/23 07:50:26;;;;;;;8.05;1.90;;;;;;;;;;2057191;28;20475;-80
2022/08/23 07:51:46;;;;;;;4.28;1.52;;;;;;;;;;2064977;28;20451;-80
2022/08/23 07:53:06;;;;;;;6.28;2.00;;;;;;;;;;2064785;28;20018;-80
2022/08/23 07:54:27;;;;;;;3.10;1.55;;;;;;;;;;2062138;28;20039;-81
2022/08/23 07:55:46;;;;;;;4.97;1.60;;;;;;;;;;2059844;28;20022;-77
2022/08/23 07:57:05;;;;;;;3.08;1.40;;;;;;;;;;2064044;28;20515;-81
2022/08/23 07:58:25;;;;;;;3.35;1.50;;;;;;;;;;2066701;28;20110;-80
2022/08/23 07:59:44;;;;;;;6.30;1.63;;;;;;;;;;2065481;28;20046;-80
2022/08/23 08:01:23;;;;;;;5.65;1.40;;;;;;;;;;2067724;28;20103;-80
2022/08/23 08:02:42;;;;;;;5.93;1.55;;;;;;;;;;2065817;28;20026;-81
2022/08/23 08:04:01;;;;;;;4.88;1.10;;;;;;;;;;2058732;28;20022;-80
2022/08/23 08:05:20;;;;;;;3.83;1.42;;;;;;;;;;2066199;28;20035;-80
2022/08/23 08:06:45;;;;;;;9.25;1.38;;;;;;;;;;2068408;28;20027;-81